This is the latest recevied weather packets stored in our database for station/object YS1AHL-28. If no packets are shown the sender has not sent any weather packets the latest 10 day(s).
| Time | Temp. | Humidity | Pressure | Rain* | Wind** | Luminosity | Snow |
|---|---|---|---|---|---|---|---|
| 1787403453 | 16.11° C | 70% | 1019 hPa | 0 mm | - | - | - |
| 1787403393 | 16.11° C | 70% | 1019 hPa | 0 mm | - | - | - |
| 1787402853 | 16.67° C | 67% | 1019 hPa | 0 mm | - | - | - |
| 1787402792 | 16.67° C | 67% | 1019 hPa | 0 mm | - | - | - |
| 1787402252 | 16.67° C | 68% | 1019 hPa | 0 mm | - | - | - |
| 1787402192 | 16.67° C | 68% | 1019 hPa | 0 mm | - | - | - |
| 1787401651 | 15° C | 74% | 1018 hPa | 0 mm | - | - | - |
| 1787401591 | 15° C | 74% | 1018 hPa | 0 mm | - | - | - |
| 1787401051 | 15.56° C | 71% | 1018 hPa | 0 mm | - | - | - |
| 1787400990 | 15.56° C | 71% | 1018 hPa | 0 mm | - | - | - |
| 1787400450 | 15° C | 75% | 1018 hPa | 0 mm | - | - | - |
| 1787400390 | 15° C | 75% | 1018 hPa | 0 mm | - | - | - |
| 1787399849 | 13.33° C | 84% | 1019 hPa | 0 mm | - | - | - |
| 1787399789 | 13.33° C | 84% | 1019 hPa | 0 mm | - | - | - |
| 1787399248 | 12.22° C | 89% | 1019 hPa | 0 mm | - | - | - |
| 1787399188 | 12.22° C | 89% | 1019 hPa | 0 mm | - | - | - |
| 1787398648 | 11.67° C | 92% | 1019 hPa | 0 mm | - | - | - |
| 1787398588 | 11.67° C | 92% | 1019 hPa | 0 mm | - | - | - |
| 1787398047 | 10.56° C | 93% | 1019 hPa | 0 mm | - | - | - |
| 1787397987 | 10.56° C | 93% | 1019 hPa | 0 mm | - | - | - |
| 1787397447 | 10.56° C | 93% | 1018 hPa | 0 mm | - | - | - |
| 1787397386 | 10.56° C | 93% | 1018 hPa | 0 mm | - | - | - |
| 1787396846 | 10° C | 93% | 1018 hPa | 0 mm | - | - | - |
| 1787396786 | 10° C | 93% | 1018 hPa | 0 mm | - | - | - |
| 1787396245 | 10.56° C | 89% | 1019 hPa | 0 mm | - | - | - |
* Rain latest hour (hover to see other rain measurements)
** Current wind speed in m/s (hover to see current wind gust speed)